createdAt,value
2023-02-26T00:00:47.925Z,61
2023-02-26T00:02:27.766Z,60
2023-02-26T00:04:07.463Z,60
2023-02-26T00:05:47.117Z,61
2023-02-26T00:07:26.870Z,60
2023-02-26T00:09:06.703Z,61
2023-02-26T00:10:46.451Z,61
2023-02-26T00:12:26.160Z,60
2023-02-26T00:14:05.928Z,60
2023-02-26T00:15:45.719Z,60
2023-02-26T00:17:25.446Z,60
2023-02-26T00:19:05.337Z,60
2023-02-26T00:20:45.131Z,60
2023-02-26T00:22:24.891Z,60
2023-02-26T00:24:04.648Z,60
2023-02-26T00:27:24.219Z,60
2023-02-26T00:29:03.885Z,60
2023-02-26T00:30:43.721Z,60
2023-02-26T00:32:23.466Z,60
2023-02-26T00:34:03.270Z,60
2023-02-26T00:35:42.861Z,60
2023-02-26T00:37:22.716Z,60
2023-02-26T00:39:02.464Z,60
2023-02-26T00:40:42.302Z,60
2023-02-26T00:42:22.004Z,60
2023-02-26T00:44:01.814Z,60
2023-02-26T00:45:41.437Z,60
2023-02-26T00:47:21.380Z,60
2023-02-26T00:49:01.106Z,59
2023-02-26T00:50:40.727Z,60
2023-02-26T00:52:20.688Z,60
2023-02-26T00:54:00.388Z,59
2023-02-26T00:55:40.111Z,60
2023-02-26T00:57:19.950Z,59
2023-02-26T01:00:39.509Z,60
2023-02-26T01:02:19.284Z,59
2023-02-26T01:03:58.902Z,60
2023-02-26T01:05:38.608Z,60
2023-02-26T01:07:18.521Z,60
2023-02-26T01:08:58.310Z,60
2023-02-26T01:10:38.069Z,60
2023-02-26T01:12:17.682Z,59
2023-02-26T01:15:37.278Z,59
2023-02-26T01:20:36.514Z,59
2023-02-26T01:22:16.381Z,60
2023-02-26T01:23:56.007Z,60
2023-02-26T01:25:35.933Z,60
2023-02-26T01:27:15.533Z,60
2023-02-26T01:28:55.292Z,60
2023-02-26T01:30:35.079Z,59
2023-02-26T01:32:14.945Z,59
2023-02-26T01:33:54.710Z,59
2023-02-26T01:37:14.280Z,59
2023-02-26T01:40:33.639Z,59
2023-02-26T01:42:13.410Z,59
2023-02-26T01:43:53.222Z,59
2023-02-26T01:45:33.121Z,59
2023-02-26T01:47:12.779Z,59
2023-02-26T01:48:52.495Z,59
2023-02-26T01:50:32.387Z,59
2023-02-26T01:52:12.040Z,59
2023-02-26T01:53:51.764Z,59
2023-02-26T01:55:31.678Z,59
2023-02-26T01:57:11.338Z,59
2023-02-26T01:58:51.252Z,59
2023-02-26T02:00:30.812Z,59
2023-02-26T02:02:10.647Z,59
2023-02-26T02:03:50.339Z,59
2023-02-26T02:05:30.176Z,59
2023-02-26T02:07:09.960Z,59
2023-02-26T02:08:49.657Z,59
2023-02-26T02:10:29.524Z,59
2023-02-26T02:12:09.360Z,59
2023-02-26T02:13:49.098Z,59
2023-02-26T02:15:28.898Z,59
2023-02-26T02:17:08.457Z,59
2023-02-26T02:18:48.268Z,59
2023-02-26T02:20:28.111Z,59
2023-02-26T02:22:07.742Z,59
2023-02-26T02:23:47.533Z,58
2023-02-26T02:25:27.426Z,59
2023-02-26T02:27:07.124Z,59
2023-02-26T02:28:46.911Z,59
2023-02-26T02:30:26.547Z,59
2023-02-26T02:32:06.442Z,59
2023-02-26T02:33:46.087Z,59
2023-02-26T02:35:26.024Z,58
2023-02-26T02:37:05.670Z,58
2023-02-26T02:38:45.488Z,58
2023-02-26T02:40:25.248Z,59
2023-02-26T02:43:44.658Z,58
2023-02-26T02:45:24.454Z,58
2023-02-26T02:47:04.200Z,58
2023-02-26T02:48:44.088Z,58
2023-02-26T02:50:23.832Z,58
2023-02-26T02:52:03.500Z,58
2023-02-26T02:53:43.265Z,58
2023-02-26T02:55:23.052Z,58
2023-02-26T02:58:42.685Z,58
2023-02-26T03:00:22.459Z,58
2023-02-26T03:02:02.520Z,58
2023-02-26T03:03:42.122Z,58
2023-02-26T03:05:21.597Z,58
2023-02-26T03:07:01.523Z,58
2023-02-26T03:08:41.244Z,57
2023-02-26T03:10:20.892Z,58
2023-02-26T03:12:00.792Z,58
2023-02-26T03:13:40.546Z,57
2023-02-26T03:15:20.199Z,58
2023-02-26T03:16:59.997Z,58
2023-02-26T03:20:19.469Z,57
2023-02-26T03:21:59.257Z,57
2023-02-26T03:23:39.020Z,58
2023-02-26T03:25:18.775Z,57
2023-02-26T03:26:58.575Z,57
2023-02-26T03:28:38.302Z,57
2023-02-26T03:30:18.063Z,57
2023-02-26T03:33:37.593Z,57
2023-02-26T03:35:17.369Z,57
2023-02-26T03:36:57.109Z,57
2023-02-26T03:38:36.881Z,57
2023-02-26T03:40:16.640Z,57
2023-02-26T03:41:56.406Z,57
2023-02-26T03:43:36.184Z,57
2023-02-26T03:45:15.946Z,57
2023-02-26T03:46:55.700Z,57
2023-02-26T03:48:35.483Z,56
2023-02-26T03:50:15.252Z,56
2023-02-26T03:51:55.008Z,56
2023-02-26T03:53:34.761Z,56
2023-02-26T03:55:14.527Z,56
2023-02-26T04:01:53.623Z,57
2023-02-26T04:03:33.356Z,57
2023-02-26T04:05:13.105Z,57
2023-02-26T04:06:52.892Z,57
2023-02-26T04:08:32.636Z,57
2023-02-26T04:10:12.407Z,56
2023-02-26T04:11:52.175Z,56
2023-02-26T04:13:31.922Z,56
2023-02-26T04:15:11.735Z,56
2023-02-26T04:16:51.456Z,56
2023-02-26T04:18:31.272Z,56
2023-02-26T04:20:10.989Z,56
2023-02-26T04:23:30.506Z,56
2023-02-26T04:25:10.286Z,56
2023-02-26T04:26:50.043Z,56
2023-02-26T04:28:29.801Z,56
2023-02-26T04:30:09.576Z,56
2023-02-26T04:33:29.191Z,56
2023-02-26T04:35:08.861Z,56
2023-02-26T04:36:48.610Z,56
2023-02-26T04:38:28.389Z,56
2023-02-26T04:40:08.148Z,56
2023-02-26T04:41:47.902Z,56
2023-02-26T04:43:27.680Z,56
2023-02-26T04:46:47.198Z,56
2023-02-26T04:48:26.961Z,56
2023-02-26T04:50:06.735Z,56
2023-02-26T04:51:46.480Z,56
2023-02-26T04:53:26.260Z,56
2023-02-26T04:55:06.013Z,56
2023-02-26T04:56:45.794Z,56
2023-02-26T04:58:25.542Z,56
2023-02-26T05:00:05.319Z,56
2023-02-26T05:01:45.079Z,56
2023-02-26T05:03:24.821Z,56
2023-02-26T05:05:04.589Z,56
2023-02-26T05:06:44.363Z,56
2023-02-26T05:08:24.125Z,56
2023-02-26T05:10:03.908Z,55
2023-02-26T05:11:43.648Z,56
2023-02-26T05:13:23.431Z,55
2023-02-26T05:16:42.971Z,55
2023-02-26T05:18:22.705Z,56
2023-02-26T05:20:02.464Z,56
2023-02-26T05:21:42.248Z,55
2023-02-26T05:23:21.996Z,55
2023-02-26T05:25:01.790Z,55
2023-02-26T05:26:41.519Z,55
2023-02-26T05:28:21.290Z,56
2023-02-26T05:30:01.276Z,56
2023-02-26T05:31:40.809Z,55
2023-02-26T05:33:20.568Z,56
2023-02-26T05:35:00.366Z,56
2023-02-26T05:36:40.114Z,55
2023-02-26T05:38:19.869Z,55
2023-02-26T05:39:59.626Z,55
2023-02-26T05:41:39.403Z,55
2023-02-26T05:43:19.183Z,55
2023-02-26T05:44:58.933Z,55
2023-02-26T05:46:38.708Z,55
2023-02-26T05:48:18.463Z,55
2023-02-26T05:49:58.227Z,55
2023-02-26T05:53:17.763Z,56
2023-02-26T05:54:57.517Z,55
2023-02-26T05:56:37.284Z,55
2023-02-26T05:58:17.032Z,55
2023-02-26T05:59:56.803Z,55
2023-02-26T06:01:36.560Z,55
2023-02-26T06:03:16.325Z,55
2023-02-26T06:04:56.084Z,55
2023-02-26T06:06:35.857Z,55
2023-02-26T06:08:15.614Z,55
2023-02-26T06:09:55.388Z,55
2023-02-26T06:11:35.145Z,55
2023-02-26T06:13:14.917Z,55
2023-02-26T06:14:54.676Z,56
2023-02-26T06:16:34.431Z,56
2023-02-26T06:18:14.193Z,56
2023-02-26T06:19:53.972Z,56
2023-02-26T06:21:33.727Z,56
2023-02-26T06:24:53.275Z,56
2023-02-26T06:26:33.014Z,56
2023-02-26T06:28:12.796Z,56
2023-02-26T06:29:52.558Z,56
2023-02-26T06:31:32.342Z,56
2023-02-26T06:33:12.087Z,56
2023-02-26T06:34:51.859Z,56
2023-02-26T06:36:31.617Z,56
2023-02-26T06:38:11.378Z,56
2023-02-26T06:39:51.134Z,57
2023-02-26T06:41:30.906Z,56
2023-02-26T06:43:10.657Z,57
2023-02-26T06:44:50.433Z,57
2023-02-26T06:46:30.192Z,57
2023-02-26T06:48:09.964Z,58
2023-02-26T06:49:49.716Z,59
2023-02-26T06:51:29.480Z,59
2023-02-26T06:53:09.243Z,59
2023-02-26T06:56:28.776Z,60
2023-02-26T06:58:08.555Z,59
2023-02-26T06:59:48.299Z,59
2023-02-26T07:01:28.060Z,59
2023-02-26T07:03:07.839Z,60
2023-02-26T07:04:47.599Z,60
2023-02-26T07:06:27.363Z,61
2023-02-26T07:08:07.154Z,62
2023-02-26T07:09:46.899Z,62
2023-02-26T07:11:26.659Z,62
2023-02-26T07:13:06.417Z,63
2023-02-26T07:14:46.192Z,63
2023-02-26T07:16:25.944Z,62
2023-02-26T07:18:05.705Z,65
2023-02-26T07:19:45.501Z,65
2023-02-26T07:21:25.240Z,66
2023-02-26T07:23:04.990Z,66
2023-02-26T07:24:44.777Z,67
2023-02-26T07:26:24.520Z,67
2023-02-26T07:28:04.291Z,69
2023-02-26T07:29:44.042Z,70
2023-02-26T07:31:23.819Z,71
2023-02-26T07:33:03.569Z,73
2023-02-26T07:34:43.358Z,74
2023-02-26T07:36:23.109Z,77
2023-02-26T07:38:02.883Z,83
2023-02-26T07:39:42.634Z,86
2023-02-26T07:41:22.420Z,87
2023-02-26T07:43:02.243Z,89
2023-02-26T07:44:41.934Z,90
2023-02-26T07:46:21.688Z,90
2023-02-26T07:48:01.468Z,89
2023-02-26T07:49:41.225Z,89
2023-02-26T07:53:00.744Z,92
2023-02-26T07:54:40.566Z,93
2023-02-26T07:56:20.298Z,95
2023-02-26T07:58:00.067Z,96
2023-02-26T07:59:39.796Z,98
2023-02-26T08:01:19.595Z,99
2023-02-26T08:02:59.336Z,100
2023-02-26T08:04:39.123Z,100
2023-02-26T08:06:18.941Z,100
2023-02-26T08:07:58.708Z,100
2023-02-26T08:09:38.395Z,100
2023-02-26T08:11:18.147Z,100
2023-02-26T08:12:57.904Z,100
2023-02-26T08:14:37.677Z,100
2023-02-26T08:16:17.453Z,100
2023-02-26T08:19:36.982Z,100
2023-02-26T08:22:56.502Z,100
2023-02-26T08:26:16.047Z,100
2023-02-26T08:27:55.801Z,100
2023-02-26T08:29:35.552Z,100
2023-02-26T08:31:15.330Z,100
2023-02-26T08:32:55.086Z,100
2023-02-26T08:34:34.931Z,100
2023-02-26T08:36:14.611Z,100
2023-02-26T08:37:54.376Z,100
2023-02-26T08:39:34.139Z,100
2023-02-26T08:41:13.886Z,100
2023-02-26T08:42:53.669Z,100
2023-02-26T08:46:13.206Z,100
2023-02-26T08:47:52.960Z,100
2023-02-26T08:49:32.733Z,100
2023-02-26T08:51:12.475Z,100
2023-02-26T08:52:52.241Z,100
2023-02-26T08:56:11.811Z,100
2023-02-26T08:57:51.546Z,100
2023-02-26T08:59:31.292Z,100
2023-02-26T09:01:11.059Z,100
2023-02-26T09:02:50.825Z,100
2023-02-26T09:04:30.603Z,100
2023-02-26T09:06:10.368Z,100
2023-02-26T09:07:50.118Z,100
2023-02-26T09:11:09.639Z,100
2023-02-26T09:12:49.414Z,100
2023-02-26T09:14:29.324Z,100
2023-02-26T09:16:08.950Z,100
2023-02-26T09:17:48.710Z,100
2023-02-26T09:21:08.241Z,100
2023-02-26T09:22:48.004Z,100
2023-02-26T09:24:27.788Z,100
2023-02-26T09:26:07.532Z,100
2023-02-26T09:27:47.293Z,100
2023-02-26T09:29:27.060Z,100
2023-02-26T09:31:06.868Z,100
2023-02-26T09:32:46.564Z,100
2023-02-26T09:34:26.343Z,100
2023-02-26T09:36:06.136Z,100
2023-02-26T09:37:45.862Z,100
2023-02-26T09:39:25.642Z,100
2023-02-26T09:41:05.447Z,100
2023-02-26T09:42:45.183Z,100
2023-02-26T09:44:24.931Z,100
2023-02-26T09:46:04.682Z,100
2023-02-26T09:47:44.587Z,100
2023-02-26T09:49:24.225Z,100
2023-02-26T09:51:03.994Z,100
2023-02-26T09:52:43.756Z,100
2023-02-26T09:54:23.514Z,100
2023-02-26T09:56:03.269Z,100
2023-02-26T09:57:43.034Z,100
2023-02-26T09:59:22.814Z,100
2023-02-26T10:01:02.572Z,100
2023-02-26T10:02:42.328Z,100
2023-02-26T10:04:22.086Z,100
2023-02-26T10:06:01.866Z,100
2023-02-26T10:07:41.630Z,100
2023-02-26T10:09:21.383Z,100
2023-02-26T10:11:01.141Z,94
2023-02-26T10:12:40.915Z,100
2023-02-26T10:14:20.709Z,100
2023-02-26T10:16:00.438Z,100
2023-02-26T10:17:40.208Z,98
2023-02-26T10:19:19.973Z,100
2023-02-26T10:20:59.751Z,98
2023-02-26T10:22:39.542Z,97
2023-02-26T10:24:19.262Z,100
2023-02-26T10:25:59.045Z,98
2023-02-26T10:27:38.785Z,100
2023-02-26T10:29:18.566Z,97
2023-02-26T10:30:58.318Z,98
2023-02-26T10:32:38.066Z,97
2023-02-26T10:34:17.852Z,96
2023-02-26T10:35:57.598Z,98
2023-02-26T10:37:37.376Z,100
2023-02-26T10:39:17.145Z,97
2023-02-26T10:40:56.905Z,100
2023-02-26T10:42:36.669Z,100
2023-02-26T10:45:56.185Z,100
2023-02-26T10:47:36.020Z,100
2023-02-26T10:49:15.709Z,100
2023-02-26T10:50:55.469Z,98
2023-02-26T10:52:35.246Z,98
2023-02-26T10:55:54.749Z,100
2023-02-26T10:57:34.530Z,100
2023-02-26T10:59:14.298Z,100
2023-02-26T11:00:54.073Z,99
2023-02-26T11:02:33.821Z,100
2023-02-26T11:04:13.573Z,100
2023-02-26T11:05:53.373Z,100
2023-02-26T11:07:33.114Z,97
2023-02-26T11:09:12.880Z,99
2023-02-26T11:10:52.640Z,97
2023-02-26T11:12:32.453Z,100
2023-02-26T11:14:12.202Z,100
2023-02-26T11:15:51.926Z,98
2023-02-26T11:17:31.716Z,100
2023-02-26T11:19:11.463Z,100
2023-02-26T11:20:51.244Z,98
2023-02-26T11:22:30.999Z,100
2023-02-26T11:24:10.780Z,99
2023-02-26T11:25:50.520Z,97
2023-02-26T11:27:30.306Z,99
2023-02-26T11:29:10.057Z,100
2023-02-26T11:30:49.837Z,98
2023-02-26T11:32:29.574Z,100
2023-02-26T11:34:09.353Z,100
2023-02-26T11:35:49.120Z,100
2023-02-26T11:37:28.877Z,100
2023-02-26T11:39:08.637Z,98
2023-02-26T11:40:48.397Z,99
2023-02-26T11:42:28.162Z,99
2023-02-26T11:44:07.916Z,100
2023-02-26T11:45:47.682Z,98
2023-02-26T11:47:27.454Z,98
2023-02-26T11:49:07.215Z,99
2023-02-26T11:50:47.020Z,99
2023-02-26T11:52:26.743Z,100
2023-02-26T11:54:06.507Z,100
2023-02-26T11:55:46.279Z,99
2023-02-26T11:57:26.035Z,99
2023-02-26T11:59:05.801Z,100
2023-02-26T12:00:45.563Z,100
2023-02-26T12:02:25.321Z,100
2023-02-26T12:04:05.111Z,98
2023-02-26T12:05:44.864Z,100
2023-02-26T12:07:24.609Z,100
2023-02-26T12:09:04.381Z,99
2023-02-26T12:10:44.138Z,98
2023-02-26T12:12:23.922Z,100
2023-02-26T12:14:03.680Z,99
2023-02-26T12:15:43.425Z,100
2023-02-26T12:17:23.190Z,98
2023-02-26T12:19:02.956Z,100
2023-02-26T12:20:42.722Z,99
2023-02-26T12:22:22.494Z,100
2023-02-26T12:24:02.290Z,98
2023-02-26T12:25:42.020Z,98
2023-02-26T12:27:21.775Z,98
2023-02-26T12:29:01.547Z,99
2023-02-26T12:30:41.306Z,98
2023-02-26T12:32:21.102Z,98
2023-02-26T12:34:00.858Z,98
2023-02-26T12:35:40.600Z,97
2023-02-26T12:39:00.132Z,100
2023-02-26T12:40:39.901Z,99
2023-02-26T12:42:19.668Z,98
2023-02-26T12:43:59.410Z,99
2023-02-26T12:45:39.182Z,100
2023-02-26T12:47:18.957Z,100
2023-02-26T12:48:58.718Z,100
2023-02-26T12:50:38.504Z,100
2023-02-26T12:52:18.279Z,97
2023-02-26T12:53:58.016Z,98
2023-02-26T12:55:37.777Z,97
2023-02-26T12:57:17.535Z,98
2023-02-26T12:58:57.302Z,100
2023-02-26T13:00:37.065Z,98
2023-02-26T13:02:16.816Z,99
2023-02-26T13:03:56.591Z,100
2023-02-26T13:05:36.357Z,100
2023-02-26T13:07:16.134Z,100
2023-02-26T13:08:55.872Z,98
2023-02-26T13:10:35.634Z,100
2023-02-26T13:12:15.410Z,97
2023-02-26T13:13:55.176Z,99
2023-02-26T13:15:34.944Z,98
2023-02-26T13:17:14.720Z,99
2023-02-26T13:20:34.238Z,99
2023-02-26T13:22:13.985Z,98
2023-02-26T13:23:53.778Z,98
2023-02-26T13:25:33.515Z,99
2023-02-26T13:27:13.314Z,97
2023-02-26T13:28:53.057Z,96
2023-02-26T13:30:32.820Z,97
2023-02-26T13:32:12.581Z,98
2023-02-26T13:33:52.337Z,99
2023-02-26T13:35:32.096Z,96
2023-02-26T13:37:11.871Z,100
2023-02-26T13:38:51.643Z,98
2023-02-26T13:40:31.393Z,98
2023-02-26T13:42:11.154Z,99
2023-02-26T13:45:30.681Z,98
2023-02-26T13:47:10.445Z,97
2023-02-26T13:48:50.207Z,98
2023-02-26T13:50:29.964Z,100
2023-02-26T13:52:09.736Z,97
2023-02-26T13:53:49.500Z,97
2023-02-26T13:55:29.274Z,99
2023-02-26T13:57:09.035Z,99
2023-02-26T13:58:48.784Z,99
2023-02-26T14:00:28.561Z,99
2023-02-26T14:02:08.324Z,100
2023-02-26T14:03:48.088Z,100
2023-02-26T14:05:27.839Z,100
2023-02-26T14:07:07.617Z,99
2023-02-26T14:08:47.386Z,99
2023-02-26T14:10:27.131Z,98
2023-02-26T14:12:06.908Z,98
2023-02-26T14:13:46.673Z,98
2023-02-26T14:15:26.420Z,100
2023-02-26T14:17:06.190Z,99
2023-02-26T14:20:25.716Z,99
2023-02-26T14:22:05.498Z,100
2023-02-26T14:23:45.258Z,100
2023-02-26T14:25:25.014Z,100
2023-02-26T14:27:04.794Z,100
2023-02-26T14:28:44.545Z,99
2023-02-26T14:30:24.281Z,100
2023-02-26T14:32:04.057Z,97
2023-02-26T14:33:43.842Z,98
2023-02-26T14:35:23.624Z,98
2023-02-26T14:37:03.352Z,97
2023-02-26T14:38:43.116Z,99
2023-02-26T14:40:22.871Z,97
2023-02-26T14:42:02.653Z,100
2023-02-26T14:43:42.415Z,99
2023-02-26T14:45:22.174Z,98
2023-02-26T14:47:02.013Z,100
2023-02-26T14:48:41.731Z,97
2023-02-26T14:50:21.450Z,98
2023-02-26T14:52:01.238Z,97
2023-02-26T14:53:41.045Z,100
2023-02-26T14:55:20.775Z,98
2023-02-26T14:57:00.528Z,98
2023-02-26T14:58:40.296Z,99
2023-02-26T15:00:20.062Z,99
2023-02-26T15:01:59.814Z,100
2023-02-26T15:03:39.566Z,98
2023-02-26T15:05:19.348Z,100
2023-02-26T15:08:38.893Z,99
2023-02-26T15:10:18.631Z,100
2023-02-26T15:11:58.405Z,100
2023-02-26T15:13:38.224Z,99
2023-02-26T15:15:17.927Z,100
2023-02-26T15:16:57.689Z,100
2023-02-26T15:18:37.531Z,98
2023-02-26T15:20:17.223Z,97
2023-02-26T15:21:56.991Z,98
2023-02-26T15:25:16.517Z,100
2023-02-26T15:26:56.288Z,100
2023-02-26T15:28:36.038Z,100
2023-02-26T15:30:15.806Z,100
2023-02-26T15:31:55.561Z,100
2023-02-26T15:33:35.341Z,98
2023-02-26T15:35:15.094Z,100
2023-02-26T15:36:54.864Z,97
2023-02-26T15:38:34.633Z,100
2023-02-26T15:40:14.388Z,97
2023-02-26T15:41:54.150Z,100
2023-02-26T15:43:33.914Z,100
2023-02-26T15:45:13.673Z,98
2023-02-26T15:46:53.429Z,100
2023-02-26T15:48:33.202Z,97
2023-02-26T15:50:12.969Z,99
2023-02-26T15:51:52.730Z,100
2023-02-26T15:55:12.264Z,100
2023-02-26T15:56:52.032Z,100
2023-02-26T15:58:31.806Z,97
2023-02-26T16:00:11.559Z,99
2023-02-26T16:01:51.313Z,99
2023-02-26T16:05:10.845Z,100
2023-02-26T16:06:50.641Z,100
2023-02-26T16:08:30.356Z,100
2023-02-26T16:10:10.132Z,100
2023-02-26T16:11:49.897Z,96
2023-02-26T16:13:29.668Z,100
2023-02-26T16:15:09.423Z,86
2023-02-26T16:16:49.184Z,80
2023-02-26T16:18:28.959Z,78
2023-02-26T16:20:08.727Z,77
2023-02-26T16:21:48.469Z,76
2023-02-26T16:23:28.306Z,76
2023-02-26T16:25:07.998Z,74
2023-02-26T16:26:47.766Z,73
2023-02-26T16:28:27.526Z,71
2023-02-26T16:30:07.306Z,72
2023-02-26T16:31:47.072Z,71
2023-02-26T16:33:26.892Z,70
2023-02-26T16:35:06.642Z,70
2023-02-26T16:36:46.457Z,70
2023-02-26T16:38:26.171Z,69
2023-02-26T16:40:05.893Z,69
2023-02-26T16:41:45.726Z,68
2023-02-26T16:45:05.193Z,68
2023-02-26T16:46:45.135Z,68
2023-02-26T16:48:24.909Z,67
2023-02-26T16:50:04.563Z,67
2023-02-26T16:51:44.379Z,67
2023-02-26T16:53:23.978Z,67
2023-02-26T16:55:03.911Z,67
2023-02-26T16:56:43.784Z,67
2023-02-26T16:58:23.390Z,66
2023-02-26T17:00:03.225Z,66
2023-02-26T17:01:42.950Z,66
2023-02-26T17:03:22.810Z,66
2023-02-26T17:05:02.458Z,66
2023-02-26T17:06:42.302Z,66
2023-02-26T17:08:22.034Z,66
2023-02-26T17:10:01.684Z,65
2023-02-26T17:11:41.547Z,65
2023-02-26T17:13:21.318Z,66
2023-02-26T17:15:01.109Z,66
2023-02-26T17:16:40.828Z,65
2023-02-26T17:18:20.594Z,65
2023-02-26T17:20:00.208Z,65
2023-02-26T17:21:40.156Z,65
2023-02-26T17:23:19.873Z,65
2023-02-26T17:24:59.665Z,65
2023-02-26T17:26:39.374Z,65
2023-02-26T17:28:19.029Z,65
2023-02-26T17:29:58.880Z,65
2023-02-26T17:31:38.633Z,65
2023-02-26T17:33:18.450Z,65
2023-02-26T17:34:58.225Z,65
2023-02-26T17:36:37.994Z,65
2023-02-26T17:38:17.756Z,65
2023-02-26T17:39:57.491Z,65
2023-02-26T17:41:37.269Z,65
2023-02-26T17:43:16.977Z,65
2023-02-26T17:44:56.898Z,64
2023-02-26T17:46:36.439Z,65
2023-02-26T17:48:16.380Z,64
2023-02-26T17:49:56.116Z,64
2023-02-26T17:51:35.879Z,64
2023-02-26T17:53:15.678Z,64
2023-02-26T17:54:55.393Z,64
2023-02-26T17:56:35.172Z,64
2023-02-26T17:58:14.886Z,64
2023-02-26T17:59:54.628Z,64
2023-02-26T18:01:34.303Z,64
2023-02-26T18:03:14.079Z,64
2023-02-26T18:04:53.826Z,64
2023-02-26T18:06:33.642Z,64
2023-02-26T18:08:13.405Z,64
2023-02-26T18:09:53.124Z,64
2023-02-26T18:11:32.905Z,64
2023-02-26T18:13:12.819Z,64
2023-02-26T18:14:52.586Z,64
2023-02-26T18:16:32.324Z,64
2023-02-26T18:18:12.107Z,64
2023-02-26T18:19:51.923Z,64
2023-02-26T18:21:31.550Z,64
2023-02-26T18:24:51.262Z,64
2023-02-26T18:26:30.960Z,64
2023-02-26T18:28:10.706Z,64
2023-02-26T18:29:50.483Z,64
2023-02-26T18:31:30.173Z,64
2023-02-26T18:33:09.830Z,64
2023-02-26T18:34:49.717Z,64
2023-02-26T18:36:29.505Z,64
2023-02-26T18:38:09.108Z,64
2023-02-26T18:39:49.035Z,63
2023-02-26T18:41:28.798Z,64
2023-02-26T18:43:08.409Z,64
2023-02-26T18:44:48.359Z,64
2023-02-26T18:46:28.081Z,64
2023-02-26T18:48:07.787Z,64
2023-02-26T18:49:47.618Z,64
2023-02-26T18:51:27.322Z,64
2023-02-26T18:53:07.067Z,63
2023-02-26T18:54:46.745Z,63
2023-02-26T18:56:26.693Z,64
2023-02-26T18:58:06.429Z,64
2023-02-26T18:59:46.203Z,64
2023-02-26T19:01:26.034Z,64
2023-02-26T19:03:05.743Z,64
2023-02-26T19:04:45.467Z,64
2023-02-26T19:06:25.136Z,63
2023-02-26T19:08:05.042Z,64
2023-02-26T19:09:44.799Z,63
2023-02-26T19:11:24.553Z,63
2023-02-26T19:13:04.301Z,64
2023-02-26T19:14:43.913Z,63
2023-02-26T19:16:23.685Z,63
2023-02-26T19:18:03.571Z,63
2023-02-26T19:19:43.383Z,63
2023-02-26T19:21:23.041Z,63
2023-02-26T19:24:42.488Z,63
2023-02-26T19:26:22.274Z,63
2023-02-26T19:28:02.033Z,63
2023-02-26T19:29:41.886Z,63
2023-02-26T19:31:21.542Z,63
2023-02-26T19:33:01.448Z,63
2023-02-26T19:34:41.118Z,63
2023-02-26T19:36:20.977Z,63
2023-02-26T19:38:00.775Z,63
2023-02-26T19:39:40.509Z,63
2023-02-26T19:41:20.141Z,63
2023-02-26T19:43:00.071Z,63
2023-02-26T19:46:19.621Z,63
2023-02-26T19:47:59.337Z,63
2023-02-26T19:49:39.150Z,63
2023-02-26T19:51:18.898Z,63
2023-02-26T19:54:38.338Z,63
2023-02-26T19:56:18.179Z,63
2023-02-26T19:57:57.858Z,63
2023-02-26T19:59:37.647Z,63
2023-02-26T20:01:17.373Z,63
2023-02-26T20:02:57.301Z,63
2023-02-26T20:04:37.028Z,63
2023-02-26T20:06:16.729Z,63
2023-02-26T20:07:56.527Z,63
2023-02-26T20:09:36.206Z,63
2023-02-26T20:11:15.875Z,63
2023-02-26T20:12:55.833Z,63
2023-02-26T20:14:35.496Z,63
2023-02-26T20:16:15.275Z,63
2023-02-26T20:17:55.069Z,63
2023-02-26T20:19:34.870Z,63
2023-02-26T20:21:14.459Z,63
2023-02-26T20:22:54.327Z,63
2023-02-26T20:24:34.000Z,63
2023-02-26T20:26:13.865Z,63
2023-02-26T20:27:53.578Z,62
2023-02-26T20:29:33.440Z,63
2023-02-26T20:31:13.178Z,62
2023-02-26T20:32:52.961Z,63
2023-02-26T20:34:32.588Z,63
2023-02-26T20:36:12.524Z,63
2023-02-26T20:37:52.096Z,63
2023-02-26T20:39:32.046Z,63
2023-02-26T20:41:11.647Z,63
2023-02-26T20:42:51.396Z,62
2023-02-26T20:44:31.167Z,62
2023-02-26T20:47:50.695Z,62
2023-02-26T20:49:30.449Z,62
2023-02-26T20:51:10.298Z,62
2023-02-26T20:52:50.124Z,62
2023-02-26T20:54:29.956Z,62
2023-02-26T20:56:09.622Z,62
2023-02-26T20:57:49.483Z,62
2023-02-26T20:59:29.199Z,62
2023-02-26T21:01:08.797Z,62
2023-02-26T21:02:48.589Z,62
2023-02-26T21:04:28.494Z,62
2023-02-26T21:06:08.090Z,62
2023-02-26T21:07:48.006Z,62
2023-02-26T21:09:27.606Z,62
2023-02-26T21:11:07.518Z,62
2023-02-26T21:12:47.241Z,62
2023-02-26T21:14:26.947Z,62
2023-02-26T21:16:06.813Z,62
2023-02-26T21:17:46.444Z,62
2023-02-26T21:19:26.342Z,62
2023-02-26T21:21:06.132Z,62
2023-02-26T21:22:45.950Z,62
2023-02-26T21:24:25.650Z,62
2023-02-26T21:26:05.370Z,62
2023-02-26T21:27:45.203Z,62
2023-02-26T21:29:24.925Z,62
2023-02-26T21:31:04.657Z,62
2023-02-26T21:32:44.451Z,62
2023-02-26T21:34:24.092Z,62
2023-02-26T21:36:03.934Z,62
2023-02-26T21:37:43.596Z,62
2023-02-26T21:39:23.453Z,62
2023-02-26T21:41:03.281Z,62
2023-02-26T21:42:42.956Z,62
2023-02-26T21:44:22.728Z,62
2023-02-26T21:46:02.420Z,62
2023-02-26T21:47:42.385Z,62
2023-02-26T21:49:22.080Z,62
2023-02-26T21:51:01.910Z,62
2023-02-26T21:54:21.378Z,62
2023-02-26T21:56:01.285Z,62
2023-02-26T21:57:40.751Z,62
2023-02-26T21:59:20.528Z,62
2023-02-26T22:01:00.287Z,62
2023-02-26T22:02:40.060Z,62
2023-02-26T22:04:19.905Z,62
2023-02-26T22:07:39.366Z,62
2023-02-26T22:09:19.330Z,62
2023-02-26T22:10:58.888Z,62
2023-02-26T22:12:38.738Z,62
2023-02-26T22:14:18.572Z,61
2023-02-26T22:17:37.939Z,61
2023-02-26T22:19:17.693Z,62
2023-02-26T22:20:57.626Z,62
2023-02-26T22:22:37.380Z,62
2023-02-26T22:24:16.992Z,62
2023-02-26T22:25:56.866Z,62
2023-02-26T22:27:36.530Z,62
2023-02-26T22:29:16.295Z,61
2023-02-26T22:30:56.217Z,61
2023-02-26T22:32:35.986Z,61
2023-02-26T22:34:15.767Z,61
2023-02-26T22:37:35.112Z,61
2023-02-26T22:39:15.018Z,61
2023-02-26T22:40:54.780Z,61
2023-02-26T22:42:34.518Z,61
2023-02-26T22:44:14.233Z,61
2023-02-26T22:45:54.092Z,61
2023-02-26T22:47:33.710Z,61
2023-02-26T22:49:13.498Z,61
2023-02-26T22:50:53.378Z,61
2023-02-26T22:52:33.143Z,61
2023-02-26T22:54:12.795Z,61
2023-02-26T22:55:52.665Z,61
2023-02-26T22:57:32.381Z,61
2023-02-26T22:59:12.183Z,61
2023-02-26T23:00:51.928Z,61
2023-02-26T23:02:31.719Z,61
2023-02-26T23:05:51.315Z,61
2023-02-26T23:07:30.996Z,61
2023-02-26T23:09:10.620Z,61
2023-02-26T23:10:50.522Z,61
2023-02-26T23:12:30.322Z,61
2023-02-26T23:14:10.071Z,61
2023-02-26T23:15:49.674Z,61
2023-02-26T23:17:29.432Z,61
2023-02-26T23:19:09.203Z,61
2023-02-26T23:20:48.972Z,61
2023-02-26T23:22:28.737Z,61
2023-02-26T23:24:08.503Z,61
2023-02-26T23:25:48.257Z,61
2023-02-26T23:27:28.021Z,60
2023-02-26T23:30:47.560Z,61
2023-02-26T23:32:27.331Z,60
2023-02-26T23:34:07.073Z,61
2023-02-26T23:35:46.861Z,60
2023-02-26T23:37:26.598Z,60
2023-02-26T23:39:06.362Z,61
2023-02-26T23:40:46.122Z,61
2023-02-26T23:42:25.901Z,61
2023-02-26T23:44:05.661Z,61
2023-02-26T23:45:45.430Z,61
2023-02-26T23:47:25.197Z,61
2023-02-26T23:49:04.941Z,61
2023-02-26T23:50:44.702Z,60
2023-02-26T23:52:24.479Z,61
2023-02-26T23:54:04.257Z,61
2023-02-26T23:55:43.995Z,61
2023-02-26T23:57:23.767Z,61
2023-02-26T23:59:03.540Z,60
